»·PEaware :: PHTIM KLAX-KSNA

PHTIM :: KLAX-KSNA

FLIGHT INFORMATION

Flight Status: Arrived
Operator: Unknown
More flights by this operator :: More flights under this callsign
Pilot: Tim P. (6337)
Aircraft: CESSNA 172 SKYHAWK
(C172)
More flights by this aircraft type
Origin: KLAX Los Angeles Intl
United States
Destination: KSNA John Wayne-Orange Co
United States
More flights between these airports :: More routes between these airports
Route: SLI8 SLI
File this flight plan on PilotEdge
Remarks: I-06 rating
Altitude:
(Current/Filed)
4,000ft
Speed:
(Current/Filed)
105kts
Departed: 01-Dec-18 11:32 AM
Arrived: 01-Dec-18 12:16 PM
Distance/Time
Traveled:
31nm/0:43
Distance/Time
To Go:
Arrived

Flight Plot

Page will automatically refresh every two minutes.

Flight plan parsing failed; only flown route is shown


Map Options




Map Legend


Flown Route
Filed Route
Departure Airport
Arrival Airport
Navaid (VOR, NDB)
Fix

Horizontal Profiles

Position Reports

Time Latitude Longitude Heading Altitude Ground
Speed
01-Dec-18 10:33 33.933478 -118.400066 78 109ft 0kts
01-Dec-18 10:34 33.933478 -118.400066 78 109ft 0kts
01-Dec-18 10:35 33.933478 -118.400066 78 109ft 0kts
01-Dec-18 10:36 33.933478 -118.400066 78 109ft 0kts
01-Dec-18 10:37 33.933478 -118.400066 78 109ft 0kts
01-Dec-18 10:38 33.933478 -118.400066 78 109ft 0kts
01-Dec-18 10:39 33.933478 -118.400066 78 109ft 0kts
01-Dec-18 10:40 33.933478 -118.400066 78 109ft 0kts
01-Dec-18 10:41 33.933478 -118.400066 78 109ft 0kts
01-Dec-18 10:42 33.933478 -118.400066 78 109ft 0kts
01-Dec-18 10:43 33.933478 -118.400066 78 109ft 0kts
01-Dec-18 10:44 33.933478 -118.400066 78 109ft 0kts
01-Dec-18 10:45 33.933478 -118.400066 78 109ft 0kts
01-Dec-18 10:46 33.933478 -118.400066 78 109ft 0kts
01-Dec-18 10:47 33.933478 -118.400066 78 109ft 0kts
01-Dec-18 10:48 33.933478 -118.400066 78 109ft 0kts
01-Dec-18 10:49 33.933478 -118.400066 78 109ft 0kts
01-Dec-18 10:50 33.933478 -118.400066 78 109ft 0kts
01-Dec-18 10:51 33.933478 -118.400066 78 109ft 0kts
01-Dec-18 10:52 33.933478 -118.400066 78 109ft 0kts
01-Dec-18 10:53 33.933478 -118.400066 78 109ft 0kts
01-Dec-18 10:54 33.933478 -118.400066 78 109ft 0kts
01-Dec-18 10:55 33.933478 -118.400066 78 109ft 0kts
01-Dec-18 10:56 33.933478 -118.400066 78 109ft 0kts
01-Dec-18 10:57 33.933478 -118.400066 78 109ft 0kts
01-Dec-18 10:58 33.933478 -118.400066 78 109ft 0kts
01-Dec-18 10:59 33.933478 -118.400066 78 109ft 0kts
01-Dec-18 11:00 33.933478 -118.400066 78 109ft 0kts
01-Dec-18 11:01 33.933478 -118.400066 78 109ft 0kts
01-Dec-18 11:02 33.933478 -118.400066 78 109ft 0kts
01-Dec-18 11:03 33.933478 -118.400066 78 109ft 0kts
01-Dec-18 11:04 33.933478 -118.400066 78 109ft 0kts
01-Dec-18 11:05 33.933478 -118.400066 78 109ft 0kts
01-Dec-18 11:06 33.933478 -118.400066 78 109ft 0kts
01-Dec-18 11:07 33.933478 -118.400066 78 109ft 0kts
01-Dec-18 11:08 33.933478 -118.400066 78 109ft 0kts
01-Dec-18 11:09 33.933478 -118.400066 78 109ft 0kts
01-Dec-18 11:10 33.933478 -118.400066 78 109ft 0kts
01-Dec-18 11:11 33.933478 -118.400066 78 109ft 0kts
01-Dec-18 11:12 33.933478 -118.400066 78 109ft 0kts
01-Dec-18 11:13 33.933478 -118.400066 78 109ft 0kts
01-Dec-18 11:14 33.933478 -118.400066 78 109ft 0kts
01-Dec-18 11:15 33.933478 -118.400066 78 109ft 0kts
01-Dec-18 11:16 33.933478 -118.400066 78 109ft 0kts
01-Dec-18 11:17 33.933478 -118.400066 78 109ft 0kts
01-Dec-18 11:18 33.933478 -118.400066 78 109ft 0kts
01-Dec-18 11:19 33.933478 -118.400066 78 109ft 0kts
01-Dec-18 11:20 33.933478 -118.400066 78 109ft 0kts
01-Dec-18 11:21 33.933478 -118.400066 78 109ft 0kts
01-Dec-18 11:22 33.933478 -118.400066 78 109ft 0kts
01-Dec-18 11:23 33.933509 -118.399977 52 109ft 2kts
01-Dec-18 11:24 33.934527 -118.398044 55 109ft 9kts
01-Dec-18 11:25 33.934964 -118.394108 85 109ft 14kts
01-Dec-18 11:26 33.935352 -118.391024 87 109ft 3kts
01-Dec-18 11:27 33.935674 -118.387145 81 109ft 14kts
01-Dec-18 11:28 33.936253 -118.382854 42 109ft 10kts
01-Dec-18 11:29 33.936499 -118.382767 326 109ft 0kts
01-Dec-18 11:30 33.936499 -118.382767 326 109ft 0kts
01-Dec-18 11:31 33.936499 -118.382767 326 109ft 0kts
01-Dec-18 11:32 33.936499 -118.382767 326 109ft 0kts
01-Dec-18 11:33 33.936499 -118.382767 326 109ft 0kts
01-Dec-18 11:34 33.936888 -118.382806 354 109ft 9kts
01-Dec-18 11:35 33.935624 -118.399959 265 442ft 84kts
01-Dec-18 11:36 33.931560 -118.430089 254 1302ft 91kts
01-Dec-18 11:37 33.917294 -118.454130 210 2137ft 95kts
01-Dec-18 11:38 33.895257 -118.470939 210 2935ft 94kts
01-Dec-18 11:39 33.872968 -118.487962 213 3622ft 96kts
01-Dec-18 11:40 33.848408 -118.492074 143 4024ft 110kts
01-Dec-18 11:41 33.821621 -118.472432 146 3999ft 114kts
01-Dec-18 11:42 33.794505 -118.453152 144 4007ft 111kts
01-Dec-18 11:43 33.767216 -118.434195 148 3998ft 112kts
01-Dec-18 11:44 33.740436 -118.414725 144 3999ft 112kts
01-Dec-18 11:45 33.714317 -118.393965 141 4003ft 111kts
01-Dec-18 11:46 33.688101 -118.374161 144 4026ft 110kts
01-Dec-18 11:47 33.665576 -118.350739 95 4039ft 104kts
01-Dec-18 11:48 33.678227 -118.321626 57 4084ft 101kts
01-Dec-18 11:49 33.692928 -118.293310 58 4083ft 102kts
01-Dec-18 11:50 33.706353 -118.263126 62 4104ft 101kts
01-Dec-18 11:51 33.715802 -118.231089 70 4123ft 101kts
01-Dec-18 11:52 33.726111 -118.198956 65 4112ft 102kts
01-Dec-18 11:53 33.738548 -118.168047 60 4101ft 103kts
01-Dec-18 11:54 33.750633 -118.137510 64 4103ft 102kts
01-Dec-18 11:55 33.763133 -118.106661 56 4088ft 103kts
01-Dec-18 11:56 33.779107 -118.078884 53 4091ft 102kts
01-Dec-18 11:57 33.795046 -118.050297 52 4105ft 101kts
01-Dec-18 11:58 33.809758 -118.021591 61 4113ft 103kts
01-Dec-18 11:59 33.821973 -117.990412 63 4108ft 103kts
01-Dec-18 12:00 33.832778 -117.957928 67 4071ft 105kts
01-Dec-18 12:01 33.841527 -117.924304 73 4022ft 108kts
01-Dec-18 12:02 33.851248 -117.890982 60 4014ft 104kts
01-Dec-18 12:03 33.865084 -117.860357 57 3997ft 104kts
01-Dec-18 12:04 33.877419 -117.829136 66 4009ft 103kts
01-Dec-18 12:05 33.887946 -117.797086 69 4004ft 104kts
01-Dec-18 12:06 33.897639 -117.764137 63 4001ft 103kts
01-Dec-18 12:07 33.907879 -117.731703 69 4015ft 102kts
01-Dec-18 12:08 33.927016 -117.708593 30 3882ft 107kts
01-Dec-18 12:09 33.953344 -117.696429 321 3538ft 116kts
01-Dec-18 12:10 33.936088 -117.713683 163 3475ft 114kts
01-Dec-18 12:11 33.906579 -117.724752 207 3415ft 120kts
01-Dec-18 12:12 33.878799 -117.741820 207 3462ft 116kts
01-Dec-18 12:13 33.849809 -117.759861 204 3435ft 119kts
01-Dec-18 12:14 33.817830 -117.779402 206 2923ft 132kts
01-Dec-18 12:15 33.786809 -117.798198 209 2434ft 130kts
01-Dec-18 12:16 33.754613 -117.819191 207 1708ft 134kts
01-Dec-18 12:17 33.721949 -117.839647 206 964ft 135kts
01-Dec-18 12:18 33.693553 -117.857562 207 369ft 90kts
01-Dec-18 12:19 33.677078 -117.867951 208 60ft 39kts
01-Dec-18 12:20 33.675939 -117.869746 305 60ft 0kts
01-Dec-18 12:21 33.676421 -117.869859 20 60ft 9kts
01-Dec-18 12:22 33.678507 -117.869624 295 60ft 0kts
01-Dec-18 12:23 33.678507 -117.869624 295 60ft 0kts
01-Dec-18 12:24 33.678507 -117.869624 295 60ft 0kts
01-Dec-18 12:25 33.678507 -117.869624 295 60ft 0kts
01-Dec-18 12:26 33.678507 -117.869624 295 60ft 0kts
01-Dec-18 12:27 33.678507 -117.869624 295 60ft 0kts
01-Dec-18 12:28 33.678507 -117.869624 295 60ft 0kts
01-Dec-18 12:29 33.678507 -117.869624 295 60ft 0kts

Navigation Log

Ident Type
Flight plan parsing failed, navigation log unavailable